sensor_id;sensor_type;location;lat;lon;timestamp;P1;durP1;ratioP1;P2;durP2;ratioP2
50417;SDS011;36346;48.280;14.292;2022-10-19T00:01:15;17.60;;;17.60;;
50417;SDS011;36346;48.280;14.292;2022-10-19T00:03:46;17.35;;;17.35;;
50417;SDS011;36346;48.280;14.292;2022-10-19T00:06:23;18.06;;;18.03;;
50417;SDS011;36346;48.280;14.292;2022-10-19T00:08:58;17.92;;;17.89;;
50417;SDS011;36346;48.280;14.292;2022-10-19T00:11:28;18.33;;;18.33;;
50417;SDS011;36346;48.280;14.292;2022-10-19T00:13:58;17.67;;;17.67;;
50417;SDS011;36346;48.280;14.292;2022-10-19T00:16:27;18.33;;;18.33;;
50417;SDS011;36346;48.280;14.292;2022-10-19T00:18:58;19.16;;;19.16;;
50417;SDS011;36346;48.280;14.292;2022-10-19T00:21:28;18.29;;;18.29;;
50417;SDS011;36346;48.280;14.292;2022-10-19T00:23:56;18.65;;;18.65;;
50417;SDS011;36346;48.280;14.292;2022-10-19T00:26:24;18.02;;;18.01;;
50417;SDS011;36346;48.280;14.292;2022-10-19T00:28:53;18.14;;;18.14;;
50417;SDS011;36346;48.280;14.292;2022-10-19T00:31:22;17.08;;;17.08;;
50417;SDS011;36346;48.280;14.292;2022-10-19T00:33:50;18.57;;;18.54;;
50417;SDS011;36346;48.280;14.292;2022-10-19T00:36:20;18.58;;;18.58;;
50417;SDS011;36346;48.280;14.292;2022-10-19T00:38:50;17.77;;;17.77;;
50417;SDS011;36346;48.280;14.292;2022-10-19T00:41:21;17.56;;;17.56;;
50417;SDS011;36346;48.280;14.292;2022-10-19T00:44:01;17.62;;;17.62;;
50417;SDS011;36346;48.280;14.292;2022-10-19T00:46:35;18.39;;;18.38;;
50417;SDS011;36346;48.280;14.292;2022-10-19T00:49:10;17.91;;;17.91;;
50417;SDS011;36346;48.280;14.292;2022-10-19T00:51:45;17.50;;;17.50;;
50417;SDS011;36346;48.280;14.292;2022-10-19T00:54:17;18.17;;;18.17;;
50417;SDS011;36346;48.280;14.292;2022-10-19T00:56:46;18.15;;;18.15;;
50417;SDS011;36346;48.280;14.292;2022-10-19T00:59:18;17.95;;;17.95;;
50417;SDS011;36346;48.280;14.292;2022-10-19T01:01:48;17.95;;;17.95;;
50417;SDS011;36346;48.280;14.292;2022-10-19T01:04:17;17.71;;;17.70;;
50417;SDS011;36346;48.280;14.292;2022-10-19T01:06:47;18.31;;;18.31;;
50417;SDS011;36346;48.280;14.292;2022-10-19T01:09:20;18.59;;;18.59;;
50417;SDS011;36346;48.280;14.292;2022-10-19T01:11:54;18.09;;;18.05;;
50417;SDS011;36346;48.280;14.292;2022-10-19T01:25:56;18.49;;;18.49;;
50417;SDS011;36346;48.280;14.292;2022-10-19T01:31:38;17.84;;;17.84;;
50417;SDS011;36346;48.280;14.292;2022-10-19T01:34:30;17.56;;;17.56;;
50417;SDS011;36346;48.280;14.292;2022-10-19T01:37:01;18.05;;;18.04;;
50417;SDS011;36346;48.280;14.292;2022-10-19T01:42:21;17.63;;;17.63;;
50417;SDS011;36346;48.280;14.292;2022-10-19T01:44:59;17.08;;;17.08;;
50417;SDS011;36346;48.280;14.292;2022-10-19T01:47:34;17.69;;;17.60;;
50417;SDS011;36346;48.280;14.292;2022-10-19T01:50:23;17.99;;;17.96;;
50417;SDS011;36346;48.280;14.292;2022-10-19T01:53:13;18.03;;;18.03;;
50417;SDS011;36346;48.280;14.292;2022-10-19T01:55:44;17.63;;;17.63;;
50417;SDS011;36346;48.280;14.292;2022-10-19T01:58:17;17.77;;;17.76;;
50417;SDS011;36346;48.280;14.292;2022-10-19T02:00:57;17.02;;;17.02;;
50417;SDS011;36346;48.280;14.292;2022-10-19T02:03:31;16.67;;;16.67;;
50417;SDS011;36346;48.280;14.292;2022-10-19T02:06:04;16.53;;;16.53;;
50417;SDS011;36346;48.280;14.292;2022-10-19T02:08:39;17.52;;;17.52;;
50417;SDS011;36346;48.280;14.292;2022-10-19T02:11:11;17.99;;;17.99;;
50417;SDS011;36346;48.280;14.292;2022-10-19T02:13:39;17.62;;;17.49;;
50417;SDS011;36346;48.280;14.292;2022-10-19T02:19:02;17.08;;;17.08;;
50417;SDS011;36346;48.280;14.292;2022-10-19T02:21:35;17.01;;;17.01;;
50417;SDS011;36346;48.280;14.292;2022-10-19T02:24:03;17.21;;;17.21;;
50417;SDS011;36346;48.280;14.292;2022-10-19T02:26:31;17.74;;;17.74;;
50417;SDS011;36346;48.280;14.292;2022-10-19T02:29:00;17.03;;;17.03;;
50417;SDS011;36346;48.280;14.292;2022-10-19T02:31:28;16.78;;;16.77;;
50417;SDS011;36346;48.280;14.292;2022-10-19T02:33:56;17.13;;;17.13;;
50417;SDS011;36346;48.280;14.292;2022-10-19T02:36:24;16.82;;;16.82;;
50417;SDS011;36346;48.280;14.292;2022-10-19T02:38:52;17.01;;;16.96;;
50417;SDS011;36346;48.280;14.292;2022-10-19T02:49:36;16.13;;;16.13;;
50417;SDS011;36346;48.280;14.292;2022-10-19T02:52:07;16.41;;;16.40;;
50417;SDS011;36346;48.280;14.292;2022-10-19T02:54:36;16.85;;;16.85;;
50417;SDS011;36346;48.280;14.292;2022-10-19T02:57:16;17.11;;;17.10;;
50417;SDS011;36346;48.280;14.292;2022-10-19T02:59:49;16.92;;;16.92;;
50417;SDS011;36346;48.280;14.292;2022-10-19T03:02:17;16.73;;;16.73;;
50417;SDS011;36346;48.280;14.292;2022-10-19T03:04:47;17.28;;;17.28;;
50417;SDS011;36346;48.280;14.292;2022-10-19T03:07:16;17.32;;;17.32;;
50417;SDS011;36346;48.280;14.292;2022-10-19T03:09:45;17.42;;;17.39;;
50417;SDS011;36346;48.280;14.292;2022-10-19T03:12:13;17.33;;;17.33;;
50417;SDS011;36346;48.280;14.292;2022-10-19T03:14:41;17.32;;;17.31;;
50417;SDS011;36346;48.280;14.292;2022-10-19T03:17:10;16.66;;;16.66;;
50417;SDS011;36346;48.280;14.292;2022-10-19T03:19:38;16.87;;;16.87;;
50417;SDS011;36346;48.280;14.292;2022-10-19T03:22:06;17.05;;;17.05;;
50417;SDS011;36346;48.280;14.292;2022-10-19T03:24:34;16.89;;;16.89;;
50417;SDS011;36346;48.280;14.292;2022-10-19T03:27:02;17.93;;;17.93;;
50417;SDS011;36346;48.280;14.292;2022-10-19T03:29:30;17.38;;;17.38;;
50417;SDS011;36346;48.280;14.292;2022-10-19T03:31:58;16.97;;;16.97;;
50417;SDS011;36346;48.280;14.292;2022-10-19T03:34:26;16.63;;;16.63;;
50417;SDS011;36346;48.280;14.292;2022-10-19T03:36:55;16.89;;;16.89;;
50417;SDS011;36346;48.280;14.292;2022-10-19T03:39:26;16.60;;;16.60;;
50417;SDS011;36346;48.280;14.292;2022-10-19T03:41:54;16.48;;;16.48;;
50417;SDS011;36346;48.280;14.292;2022-10-19T03:44:22;17.12;;;17.12;;
50417;SDS011;36346;48.280;14.292;2022-10-19T03:46:50;16.42;;;16.42;;
50417;SDS011;36346;48.280;14.292;2022-10-19T03:49:18;16.56;;;16.56;;
50417;SDS011;36346;48.280;14.292;2022-10-19T03:51:46;16.36;;;16.35;;
50417;SDS011;36346;48.280;14.292;2022-10-19T03:54:14;16.94;;;16.94;;
50417;SDS011;36346;48.280;14.292;2022-10-19T03:56:43;16.57;;;16.57;;
50417;SDS011;36346;48.280;14.292;2022-10-19T03:59:12;17.16;;;17.16;;
50417;SDS011;36346;48.280;14.292;2022-10-19T04:01:42;17.29;;;17.27;;
50417;SDS011;36346;48.280;14.292;2022-10-19T04:04:13;17.42;;;17.41;;
50417;SDS011;36346;48.280;14.292;2022-10-19T04:06:44;17.68;;;17.68;;
50417;SDS011;36346;48.280;14.292;2022-10-19T04:09:15;17.63;;;17.63;;
50417;SDS011;36346;48.280;14.292;2022-10-19T04:11:45;17.54;;;17.54;;
50417;SDS011;36346;48.280;14.292;2022-10-19T04:14:14;17.28;;;17.28;;
50417;SDS011;36346;48.280;14.292;2022-10-19T04:16:59;16.97;;;16.97;;
50417;SDS011;36346;48.280;14.292;2022-10-19T04:19:28;16.52;;;16.52;;
50417;SDS011;36346;48.280;14.292;2022-10-19T04:21:56;16.75;;;16.73;;
50417;SDS011;36346;48.280;14.292;2022-10-19T04:24:25;16.96;;;16.96;;
50417;SDS011;36346;48.280;14.292;2022-10-19T04:26:53;16.94;;;16.94;;
50417;SDS011;36346;48.280;14.292;2022-10-19T04:29:23;18.44;;;18.44;;
50417;SDS011;36346;48.280;14.292;2022-10-19T04:31:57;17.56;;;17.56;;
50417;SDS011;36346;48.280;14.292;2022-10-19T04:34:25;17.35;;;17.35;;
50417;SDS011;36346;48.280;14.292;2022-10-19T04:36:54;18.12;;;18.12;;
50417;SDS011;36346;48.280;14.292;2022-10-19T04:39:22;17.86;;;17.86;;
50417;SDS011;36346;48.280;14.292;2022-10-19T04:41:50;18.32;;;18.32;;
50417;SDS011;36346;48.280;14.292;2022-10-19T04:44:17;18.33;;;18.33;;
50417;SDS011;36346;48.280;14.292;2022-10-19T04:46:46;18.19;;;18.19;;
50417;SDS011;36346;48.280;14.292;2022-10-19T04:49:14;17.86;;;17.86;;
50417;SDS011;36346;48.280;14.292;2022-10-19T04:51:46;17.47;;;17.47;;
50417;SDS011;36346;48.280;14.292;2022-10-19T04:54:14;17.74;;;17.74;;
50417;SDS011;36346;48.280;14.292;2022-10-19T04:56:42;17.53;;;17.53;;
50417;SDS011;36346;48.280;14.292;2022-10-19T04:59:10;18.23;;;18.23;;
50417;SDS011;36346;48.280;14.292;2022-10-19T05:01:38;17.98;;;17.98;;
50417;SDS011;36346;48.280;14.292;2022-10-19T05:04:13;18.24;;;18.17;;
50417;SDS011;36346;48.280;14.292;2022-10-19T05:06:41;18.38;;;18.35;;
50417;SDS011;36346;48.280;14.292;2022-10-19T05:09:09;18.96;;;18.96;;
50417;SDS011;36346;48.280;14.292;2022-10-19T05:11:38;18.47;;;18.47;;
50417;SDS011;36346;48.280;14.292;2022-10-19T05:14:06;18.14;;;18.14;;
50417;SDS011;36346;48.280;14.292;2022-10-19T05:16:34;17.94;;;17.94;;
50417;SDS011;36346;48.280;14.292;2022-10-19T05:19:02;18.14;;;18.14;;
50417;SDS011;36346;48.280;14.292;2022-10-19T05:21:31;18.23;;;18.22;;
50417;SDS011;36346;48.280;14.292;2022-10-19T05:23:59;18.49;;;18.49;;
50417;SDS011;36346;48.280;14.292;2022-10-19T05:26:27;18.65;;;18.65;;
50417;SDS011;36346;48.280;14.292;2022-10-19T05:28:58;18.42;;;18.42;;
50417;SDS011;36346;48.280;14.292;2022-10-19T05:31:32;18.52;;;18.52;;
50417;SDS011;36346;48.280;14.292;2022-10-19T05:34:01;18.63;;;18.63;;
50417;SDS011;36346;48.280;14.292;2022-10-19T05:39:07;18.47;;;18.45;;
50417;SDS011;36346;48.280;14.292;2022-10-19T05:41:41;18.38;;;18.38;;
50417;SDS011;36346;48.280;14.292;2022-10-19T05:44:15;18.46;;;18.46;;
50417;SDS011;36346;48.280;14.292;2022-10-19T05:46:45;18.21;;;18.21;;
50417;SDS011;36346;48.280;14.292;2022-10-19T05:49:15;17.88;;;17.88;;
50417;SDS011;36346;48.280;14.292;2022-10-19T05:51:45;17.76;;;17.76;;
50417;SDS011;36346;48.280;14.292;2022-10-19T05:54:14;17.83;;;17.83;;
50417;SDS011;36346;48.280;14.292;2022-10-19T05:56:42;18.34;;;18.34;;
50417;SDS011;36346;48.280;14.292;2022-10-19T05:59:13;19.81;;;19.81;;
50417;SDS011;36346;48.280;14.292;2022-10-19T06:01:44;18.30;;;18.30;;
50417;SDS011;36346;48.280;14.292;2022-10-19T06:04:13;18.51;;;18.51;;
50417;SDS011;36346;48.280;14.292;2022-10-19T06:06:41;17.91;;;17.91;;
50417;SDS011;36346;48.280;14.292;2022-10-19T06:09:09;18.68;;;18.68;;
50417;SDS011;36346;48.280;14.292;2022-10-19T06:11:38;19.51;;;19.51;;
50417;SDS011;36346;48.280;14.292;2022-10-19T06:14:10;19.11;;;19.11;;
50417;SDS011;36346;48.280;14.292;2022-10-19T06:16:40;19.63;;;19.63;;
50417;SDS011;36346;48.280;14.292;2022-10-19T06:19:09;18.57;;;18.57;;
50417;SDS011;36346;48.280;14.292;2022-10-19T06:21:37;18.76;;;18.76;;
50417;SDS011;36346;48.280;14.292;2022-10-19T06:24:09;18.75;;;18.75;;
50417;SDS011;36346;48.280;14.292;2022-10-19T06:26:38;18.17;;;18.17;;
50417;SDS011;36346;48.280;14.292;2022-10-19T06:29:06;18.67;;;18.67;;
50417;SDS011;36346;48.280;14.292;2022-10-19T06:31:34;18.47;;;18.47;;
50417;SDS011;36346;48.280;14.292;2022-10-19T06:34:03;18.10;;;18.10;;
50417;SDS011;36346;48.280;14.292;2022-10-19T06:36:31;16.20;;;16.20;;
50417;SDS011;36346;48.280;14.292;2022-10-19T06:39:00;16.35;;;16.35;;
50417;SDS011;36346;48.280;14.292;2022-10-19T06:41:29;17.36;;;17.35;;
50417;SDS011;36346;48.280;14.292;2022-10-19T06:44:13;16.49;;;16.49;;
50417;SDS011;36346;48.280;14.292;2022-10-19T06:46:41;16.94;;;16.94;;
50417;SDS011;36346;48.280;14.292;2022-10-19T06:49:12;16.54;;;16.54;;
50417;SDS011;36346;48.280;14.292;2022-10-19T06:51:41;17.68;;;17.68;;
50417;SDS011;36346;48.280;14.292;2022-10-19T06:54:09;19.67;;;19.67;;
50417;SDS011;36346;48.280;14.292;2022-10-19T06:56:37;20.30;;;20.30;;
50417;SDS011;36346;48.280;14.292;2022-10-19T06:59:05;20.57;;;20.56;;
50417;SDS011;36346;48.280;14.292;2022-10-19T07:01:33;19.64;;;19.64;;
50417;SDS011;36346;48.280;14.292;2022-10-19T07:04:01;19.12;;;19.12;;
50417;SDS011;36346;48.280;14.292;2022-10-19T07:06:29;19.76;;;19.76;;
50417;SDS011;36346;48.280;14.292;2022-10-19T07:08:57;20.19;;;20.18;;
50417;SDS011;36346;48.280;14.292;2022-10-19T07:11:25;20.55;;;20.55;;
50417;SDS011;36346;48.280;14.292;2022-10-19T07:13:53;19.82;;;19.82;;
50417;SDS011;36346;48.280;14.292;2022-10-19T07:16:21;19.20;;;19.20;;
50417;SDS011;36346;48.280;14.292;2022-10-19T07:18:50;18.52;;;18.52;;
50417;SDS011;36346;48.280;14.292;2022-10-19T07:21:20;18.18;;;18.18;;
50417;SDS011;36346;48.280;14.292;2022-10-19T07:23:49;17.33;;;17.33;;
50417;SDS011;36346;48.280;14.292;2022-10-19T07:26:20;16.38;;;16.33;;
50417;SDS011;36346;48.280;14.292;2022-10-19T07:28:50;14.93;;;14.93;;
50417;SDS011;36346;48.280;14.292;2022-10-19T07:31:19;15.18;;;15.18;;
50417;SDS011;36346;48.280;14.292;2022-10-19T07:33:52;14.31;;;14.31;;
50417;SDS011;36346;48.280;14.292;2022-10-19T07:36:24;15.70;;;15.70;;
50417;SDS011;36346;48.280;14.292;2022-10-19T07:38:53;16.15;;;16.15;;
50417;SDS011;36346;48.280;14.292;2022-10-19T07:41:22;16.15;;;16.15;;
50417;SDS011;36346;48.280;14.292;2022-10-19T07:43:52;17.64;;;17.64;;
50417;SDS011;36346;48.280;14.292;2022-10-19T07:46:22;17.22;;;17.22;;
50417;SDS011;36346;48.280;14.292;2022-10-19T07:48:52;17.58;;;17.55;;
50417;SDS011;36346;48.280;14.292;2022-10-19T07:51:20;18.79;;;18.75;;
50417;SDS011;36346;48.280;14.292;2022-10-19T07:53:49;19.88;;;19.88;;
50417;SDS011;36346;48.280;14.292;2022-10-19T07:56:18;18.52;;;18.50;;
50417;SDS011;36346;48.280;14.292;2022-10-19T07:58:51;18.20;;;18.20;;
50417;SDS011;36346;48.280;14.292;2022-10-19T08:01:22;19.46;;;19.46;;
50417;SDS011;36346;48.280;14.292;2022-10-19T08:03:56;17.43;;;17.43;;
50417;SDS011;36346;48.280;14.292;2022-10-19T08:06:45;16.84;;;16.84;;
50417;SDS011;36346;48.280;14.292;2022-10-19T08:09:14;15.98;;;15.98;;
50417;SDS011;36346;48.280;14.292;2022-10-19T08:12:02;16.53;;;16.53;;
50417;SDS011;36346;48.280;14.292;2022-10-19T08:14:32;14.95;;;14.95;;
50417;SDS011;36346;48.280;14.292;2022-10-19T08:17:00;12.73;;;12.71;;
50417;SDS011;36346;48.280;14.292;2022-10-19T08:19:28;11.50;;;11.50;;
50417;SDS011;36346;48.280;14.292;2022-10-19T08:21:56;11.56;;;11.56;;
50417;SDS011;36346;48.280;14.292;2022-10-19T08:24:24;11.95;;;11.95;;
50417;SDS011;36346;48.280;14.292;2022-10-19T08:26:52;12.76;;;12.76;;
50417;SDS011;36346;48.280;14.292;2022-10-19T08:29:20;12.72;;;12.72;;
50417;SDS011;36346;48.280;14.292;2022-10-19T08:31:48;12.05;;;12.05;;
50417;SDS011;36346;48.280;14.292;2022-10-19T08:34:16;12.34;;;12.34;;
50417;SDS011;36346;48.280;14.292;2022-10-19T08:36:44;13.07;;;13.07;;
50417;SDS011;36346;48.280;14.292;2022-10-19T08:39:12;12.70;;;12.70;;
50417;SDS011;36346;48.280;14.292;2022-10-19T08:49:49;12.41;;;12.41;;
50417;SDS011;36346;48.280;14.292;2022-10-19T08:52:21;12.73;;;12.73;;
50417;SDS011;36346;48.280;14.292;2022-10-19T08:55:03;12.78;;;12.78;;
50417;SDS011;36346;48.280;14.292;2022-10-19T08:57:58;13.46;;;13.46;;
50417;SDS011;36346;48.280;14.292;2022-10-19T09:09:03;10.44;;;10.44;;
50417;SDS011;36346;48.280;14.292;2022-10-19T09:11:34;9.72;;;9.72;;
50417;SDS011;36346;48.280;14.292;2022-10-19T09:16:52;9.37;;;9.37;;
50417;SDS011;36346;48.280;14.292;2022-10-19T09:19:28;8.85;;;8.85;;
50417;SDS011;36346;48.280;14.292;2022-10-19T09:22:00;10.29;;;10.29;;
50417;SDS011;36346;48.280;14.292;2022-10-19T09:27:15;11.62;;;11.62;;
50417;SDS011;36346;48.280;14.292;2022-10-19T09:29:57;13.06;;;13.04;;
50417;SDS011;36346;48.280;14.292;2022-10-19T09:35:01;14.24;;;14.23;;
50417;SDS011;36346;48.280;14.292;2022-10-19T09:37:34;15.49;;;15.43;;
50417;SDS011;36346;48.280;14.292;2022-10-19T09:40:09;15.33;;;15.32;;
50417;SDS011;36346;48.280;14.292;2022-10-19T09:42:44;17.35;;;17.24;;
50417;SDS011;36346;48.280;14.292;2022-10-19T09:45:17;17.10;;;17.08;;
50417;SDS011;36346;48.280;14.292;2022-10-19T09:47:53;16.66;;;16.66;;
50417;SDS011;36346;48.280;14.292;2022-10-19T09:50:25;15.75;;;15.75;;
50417;SDS011;36346;48.280;14.292;2022-10-19T09:53:15;16.82;;;16.77;;
50417;SDS011;36346;48.280;14.292;2022-10-19T09:55:47;16.22;;;16.21;;
50417;SDS011;36346;48.280;14.292;2022-10-19T09:58:26;15.69;;;15.67;;
50417;SDS011;36346;48.280;14.292;2022-10-19T10:01:00;14.68;;;14.68;;
50417;SDS011;36346;48.280;14.292;2022-10-19T10:03:33;13.33;;;13.32;;
50417;SDS011;36346;48.280;14.292;2022-10-19T10:06:07;11.57;;;11.57;;
50417;SDS011;36346;48.280;14.292;2022-10-19T10:11:14;8.59;;;8.59;;
50417;SDS011;36346;48.280;14.292;2022-10-19T10:13:51;8.67;;;8.67;;
50417;SDS011;36346;48.280;14.292;2022-10-19T10:16:21;7.96;;;7.96;;
50417;SDS011;36346;48.280;14.292;2022-10-19T10:18:55;6.70;;;6.70;;
50417;SDS011;36346;48.280;14.292;2022-10-19T10:21:26;6.66;;;6.66;;
50417;SDS011;36346;48.280;14.292;2022-10-19T10:26:40;6.55;;;6.55;;
50417;SDS011;36346;48.280;14.292;2022-10-19T10:31:49;6.00;;;6.00;;
50417;SDS011;36346;48.280;14.292;2022-10-19T10:37:27;5.89;;;5.89;;
50417;SDS011;36346;48.280;14.292;2022-10-19T10:40:02;5.47;;;5.47;;
50417;SDS011;36346;48.280;14.292;2022-10-19T10:42:36;5.07;;;5.07;;
50417;SDS011;36346;48.280;14.292;2022-10-19T10:45:23;4.53;;;4.53;;
50417;SDS011;36346;48.280;14.292;2022-10-19T10:47:58;5.38;;;5.38;;
50417;SDS011;36346;48.280;14.292;2022-10-19T10:50:58;5.75;;;5.75;;
50417;SDS011;36346;48.280;14.292;2022-10-19T10:53:41;5.96;;;5.96;;
50417;SDS011;36346;48.280;14.292;2022-10-19T10:59:00;5.76;;;5.76;;
50417;SDS011;36346;48.280;14.292;2022-10-19T11:01:42;7.18;;;7.18;;
50417;SDS011;36346;48.280;14.292;2022-10-19T11:04:24;7.78;;;7.78;;
50417;SDS011;36346;48.280;14.292;2022-10-19T11:07:00;8.57;;;8.57;;
50417;SDS011;36346;48.280;14.292;2022-10-19T11:09:43;7.57;;;7.57;;
50417;SDS011;36346;48.280;14.292;2022-10-19T11:12:34;8.35;;;8.35;;
50417;SDS011;36346;48.280;14.292;2022-10-19T11:15:21;7.85;;;7.85;;
50417;SDS011;36346;48.280;14.292;2022-10-19T11:17:56;9.00;;;9.00;;
50417;SDS011;36346;48.280;14.292;2022-10-19T11:20:28;7.31;;;7.31;;
50417;SDS011;36346;48.280;14.292;2022-10-19T11:23:18;8.30;;;8.30;;
50417;SDS011;36346;48.280;14.292;2022-10-19T11:26:09;7.83;;;7.83;;
50417;SDS011;36346;48.280;14.292;2022-10-19T11:28:46;8.21;;;8.21;;
50417;SDS011;36346;48.280;14.292;2022-10-19T11:31:41;8.76;;;8.76;;
50417;SDS011;36346;48.280;14.292;2022-10-19T11:47:30;7.42;;;7.42;;
50417;SDS011;36346;48.280;14.292;2022-10-19T11:55:48;7.05;;;7.05;;
50417;SDS011;36346;48.280;14.292;2022-10-19T12:04:06;5.93;;;5.93;;
50417;SDS011;36346;48.280;14.292;2022-10-19T12:06:55;5.07;;;5.07;;
50417;SDS011;36346;48.280;14.292;2022-10-19T12:12:56;4.98;;;4.98;;
50417;SDS011;36346;48.280;14.292;2022-10-19T12:15:39;4.52;;;4.52;;
50417;SDS011;36346;48.280;14.292;2022-10-19T12:18:28;4.48;;;4.48;;
50417;SDS011;36346;48.280;14.292;2022-10-19T12:21:03;3.77;;;3.77;;
50417;SDS011;36346;48.280;14.292;2022-10-19T12:23:39;3.88;;;3.88;;
50417;SDS011;36346;48.280;14.292;2022-10-19T12:26:13;3.62;;;3.62;;
50417;SDS011;36346;48.280;14.292;2022-10-19T12:28:50;3.60;;;3.60;;
50417;SDS011;36346;48.280;14.292;2022-10-19T12:31:22;3.56;;;3.56;;
50417;SDS011;36346;48.280;14.292;2022-10-19T12:37:07;3.84;;;3.84;;
50417;SDS011;36346;48.280;14.292;2022-10-19T12:45:46;3.26;;;3.26;;
50417;SDS011;36346;48.280;14.292;2022-10-19T12:48:21;3.54;;;3.54;;
50417;SDS011;36346;48.280;14.292;2022-10-19T12:56:02;3.60;;;3.60;;
50417;SDS011;36346;48.280;14.292;2022-10-19T13:03:44;4.19;;;4.19;;
50417;SDS011;36346;48.280;14.292;2022-10-19T13:06:17;3.49;;;3.49;;
50417;SDS011;36346;48.280;14.292;2022-10-19T13:08:59;3.38;;;3.38;;
50417;SDS011;36346;48.280;14.292;2022-10-19T13:11:31;3.33;;;3.33;;
50417;SDS011;36346;48.280;14.292;2022-10-19T13:16:56;3.28;;;3.28;;
50417;SDS011;36346;48.280;14.292;2022-10-19T13:19:26;3.31;;;3.31;;
50417;SDS011;36346;48.280;14.292;2022-10-19T13:22:02;3.68;;;3.68;;
50417;SDS011;36346;48.280;14.292;2022-10-19T13:38:29;4.69;;;4.69;;
50417;SDS011;36346;48.280;14.292;2022-10-19T13:51:32;6.17;;;6.17;;
50417;SDS011;36346;48.280;14.292;2022-10-19T14:02:29;5.93;;;5.93;;
50417;SDS011;36346;48.280;14.292;2022-10-19T14:10:46;5.94;;;5.94;;
50417;SDS011;36346;48.280;14.292;2022-10-19T14:13:28;6.64;;;6.64;;
50417;SDS011;36346;48.280;14.292;2022-10-19T14:15:57;7.29;;;7.29;;
50417;SDS011;36346;48.280;14.292;2022-10-19T14:18:29;6.43;;;6.43;;
50417;SDS011;36346;48.280;14.292;2022-10-19T14:21:00;7.75;;;7.75;;
50417;SDS011;36346;48.280;14.292;2022-10-19T14:23:33;5.57;;;5.57;;
50417;SDS011;36346;48.280;14.292;2022-10-19T14:26:04;6.70;;;6.70;;
50417;SDS011;36346;48.280;14.292;2022-10-19T14:28:37;7.66;;;7.66;;
50417;SDS011;36346;48.280;14.292;2022-10-19T14:31:08;6.44;;;6.44;;
50417;SDS011;36346;48.280;14.292;2022-10-19T14:33:38;6.55;;;6.55;;
50417;SDS011;36346;48.280;14.292;2022-10-19T14:36:18;6.26;;;6.26;;
50417;SDS011;36346;48.280;14.292;2022-10-19T14:38:49;5.93;;;5.93;;
50417;SDS011;36346;48.280;14.292;2022-10-19T14:44:19;5.75;;;5.75;;
50417;SDS011;36346;48.280;14.292;2022-10-19T14:47:15;6.17;;;6.17;;
50417;SDS011;36346;48.280;14.292;2022-10-19T14:49:48;5.97;;;5.97;;
50417;SDS011;36346;48.280;14.292;2022-10-19T14:52:26;5.86;;;5.86;;
50417;SDS011;36346;48.280;14.292;2022-10-19T14:55:01;6.38;;;6.38;;
50417;SDS011;36346;48.280;14.292;2022-10-19T14:57:40;6.38;;;6.38;;
50417;SDS011;36346;48.280;14.292;2022-10-19T15:00:21;7.82;;;7.82;;
50417;SDS011;36346;48.280;14.292;2022-10-19T15:05:28;6.92;;;6.92;;
50417;SDS011;36346;48.280;14.292;2022-10-19T15:08:10;6.50;;;6.50;;
50417;SDS011;36346;48.280;14.292;2022-10-19T15:10:49;7.11;;;7.11;;
50417;SDS011;36346;48.280;14.292;2022-10-19T15:13:21;6.93;;;6.93;;
50417;SDS011;36346;48.280;14.292;2022-10-19T15:15:55;6.51;;;6.51;;
50417;SDS011;36346;48.280;14.292;2022-10-19T15:18:24;6.93;;;6.93;;
50417;SDS011;36346;48.280;14.292;2022-10-19T15:21:14;9.94;;;9.89;;
50417;SDS011;36346;48.280;14.292;2022-10-19T15:23:46;7.73;;;7.71;;
50417;SDS011;36346;48.280;14.292;2022-10-19T15:28:54;7.51;;;7.51;;
50417;SDS011;36346;48.280;14.292;2022-10-19T15:31:33;7.48;;;7.48;;
50417;SDS011;36346;48.280;14.292;2022-10-19T15:34:01;7.57;;;7.57;;
50417;SDS011;36346;48.280;14.292;2022-10-19T15:36:30;7.93;;;7.93;;
50417;SDS011;36346;48.280;14.292;2022-10-19T15:41:51;8.32;;;8.32;;
50417;SDS011;36346;48.280;14.292;2022-10-19T15:44:29;7.39;;;7.39;;
50417;SDS011;36346;48.280;14.292;2022-10-19T15:49:56;7.56;;;7.56;;
50417;SDS011;36346;48.280;14.292;2022-10-19T15:52:26;7.64;;;7.64;;
50417;SDS011;36346;48.280;14.292;2022-10-19T15:54:56;7.60;;;7.60;;
50417;SDS011;36346;48.280;14.292;2022-10-19T15:57:30;7.30;;;7.30;;
50417;SDS011;36346;48.280;14.292;2022-10-19T16:02:39;7.34;;;7.34;;
50417;SDS011;36346;48.280;14.292;2022-10-19T16:05:07;7.60;;;7.60;;
50417;SDS011;36346;48.280;14.292;2022-10-19T16:07:36;7.64;;;7.64;;
50417;SDS011;36346;48.280;14.292;2022-10-19T16:10:07;7.77;;;7.77;;
50417;SDS011;36346;48.280;14.292;2022-10-19T16:12:38;7.58;;;7.58;;
50417;SDS011;36346;48.280;14.292;2022-10-19T16:15:07;7.54;;;7.54;;
50417;SDS011;36346;48.280;14.292;2022-10-19T16:17:39;8.16;;;8.16;;
50417;SDS011;36346;48.280;14.292;2022-10-19T16:20:08;8.31;;;8.31;;
50417;SDS011;36346;48.280;14.292;2022-10-19T16:22:37;8.25;;;8.25;;
50417;SDS011;36346;48.280;14.292;2022-10-19T16:25:05;8.27;;;8.27;;
50417;SDS011;36346;48.280;14.292;2022-10-19T16:27:33;8.53;;;8.53;;
50417;SDS011;36346;48.280;14.292;2022-10-19T16:30:02;9.88;;;9.88;;
50417;SDS011;36346;48.280;14.292;2022-10-19T16:32:31;9.66;;;9.66;;
50417;SDS011;36346;48.280;14.292;2022-10-19T16:34:59;9.29;;;9.29;;
50417;SDS011;36346;48.280;14.292;2022-10-19T16:37:27;10.36;;;10.36;;
50417;SDS011;36346;48.280;14.292;2022-10-19T16:39:55;10.34;;;10.34;;
50417;SDS011;36346;48.280;14.292;2022-10-19T16:42:23;11.03;;;11.03;;
50417;SDS011;36346;48.280;14.292;2022-10-19T16:44:57;11.07;;;11.07;;
50417;SDS011;36346;48.280;14.292;2022-10-19T16:47:25;11.50;;;11.50;;
50417;SDS011;36346;48.280;14.292;2022-10-19T16:49:56;11.28;;;11.28;;
50417;SDS011;36346;48.280;14.292;2022-10-19T16:52:29;11.26;;;11.26;;
50417;SDS011;36346;48.280;14.292;2022-10-19T16:54:59;11.63;;;11.63;;
50417;SDS011;36346;48.280;14.292;2022-10-19T16:57:28;12.20;;;12.20;;
50417;SDS011;36346;48.280;14.292;2022-10-19T16:59:56;12.57;;;12.57;;
50417;SDS011;36346;48.280;14.292;2022-10-19T17:02:24;12.38;;;12.38;;
50417;SDS011;36346;48.280;14.292;2022-10-19T17:04:52;12.87;;;12.87;;
50417;SDS011;36346;48.280;14.292;2022-10-19T17:07:20;13.19;;;13.19;;
50417;SDS011;36346;48.280;14.292;2022-10-19T17:09:48;13.25;;;13.25;;
50417;SDS011;36346;48.280;14.292;2022-10-19T17:12:21;13.32;;;13.32;;
50417;SDS011;36346;48.280;14.292;2022-10-19T17:14:49;13.19;;;13.19;;
50417;SDS011;36346;48.280;14.292;2022-10-19T17:17:17;13.03;;;13.03;;
50417;SDS011;36346;48.280;14.292;2022-10-19T17:19:45;13.74;;;13.74;;
50417;SDS011;36346;48.280;14.292;2022-10-19T17:22:14;17.77;;;17.76;;
50417;SDS011;36346;48.280;14.292;2022-10-19T17:24:42;14.56;;;14.56;;
50417;SDS011;36346;48.280;14.292;2022-10-19T17:27:13;14.30;;;14.30;;
50417;SDS011;36346;48.280;14.292;2022-10-19T17:29:41;13.77;;;13.77;;
50417;SDS011;36346;48.280;14.292;2022-10-19T17:32:09;13.52;;;13.52;;
50417;SDS011;36346;48.280;14.292;2022-10-19T17:34:37;13.46;;;13.46;;
50417;SDS011;36346;48.280;14.292;2022-10-19T17:37:05;13.89;;;13.89;;
50417;SDS011;36346;48.280;14.292;2022-10-19T17:39:33;13.26;;;13.26;;